KAXS/AXS METAR and TAF weather

Enter ICAO airport designator
Station Type Date Time Source
KAXS METAR 2020/09/22 00:15 UTC NOAA

KAXS 220015Z AUTO 13005KT 10SM CLR 24/15 A3013 RMK AO2 T02360149


Station Type Date Time Source
KAXS Decoded METAR 2020/09/22 00:15 UTC NOAA

Altus, Altus/Quartz Mountain Regional Airport, OK, United States (KAXS) 34-41-55N 099-20-17W
Sep 21, 2020 - 08:15 PM EDT / 2020.09.22 0015 UTC
Wind: from the SE (130 degrees) at 6 MPH (5 KT):0
Visibility: 10 mile(s):0
Sky conditions: clear
Temperature: 74.5 F (23.6 C)
Dew Point: 58.8 F (14.9 C)
Relative Humidity: 58%
Pressure (altimeter): 30.13 in. Hg (1020 hPa)
ob: KAXS 220015Z AUTO 13005KT 10SM CLR 24/15 A3013 RMK AO2 T02360149
cycle: 0

Station Type Date Time Source
KAXS TAF UTC NOAA

Error!

Example: see airport list